»·PEaware :: WAT234 KPHX-KRNO

WAT234 :: KPHX-KRNO

FLIGHT INFORMATION

Flight Status: Arrived
Operator:
Walker Air Transport
More flights by this operator :: More flights under this callsign
Pilot: Eduardo Elias G. (24838)
Aircraft: BOEING 747-400 (WINGLETS)
(B744)
More flights by this aircraft type
Origin: KPHX Phoenix Sky Harbor Intl
United States
Destination: KRNO Reno/Tahoe Intl
United States
More flights between these airports :: More routes between these airports
Route: +ZEPER2 RRSTA DOVEE BTY KENNO KENNO2
File this flight plan on PilotEdge
Remarks:
Altitude:
(Current/Filed)
38,000ft
Speed:
(Current/Filed)
510kts
Departed: 29-Aug-20 10:12 AM
Arrived: 29-Aug-20 11:46 AM
Distance/Time
Traveled:
522nm/1:33
Distance/Time
To Go:
Arrived

Flight Plot

Page will automatically refresh every two minutes.

Flight plan parsing failed; only flown route is shown


Map Options




Map Legend


Flown Route
Filed Route
Departure Airport
Arrival Airport
Navaid (VOR, NDB)
Fix

Horizontal Profiles

Position Reports

Time Latitude Longitude Heading Altitude Ground
Speed
29-Aug-20 09:29 33.438127 -111.993766 225 1148ft 0kts
29-Aug-20 09:30 33.438127 -111.993766 225 1148ft 0kts
29-Aug-20 09:31 33.438127 -111.993766 225 1148ft 0kts
29-Aug-20 09:32 33.438127 -111.993766 225 1148ft 0kts
29-Aug-20 09:33 33.438127 -111.993766 225 1148ft 0kts
29-Aug-20 09:34 33.438127 -111.993766 225 1148ft 0kts
29-Aug-20 09:35 33.438127 -111.993766 225 1148ft 0kts
29-Aug-20 09:36 33.438127 -111.993766 225 1148ft 0kts
29-Aug-20 09:37 33.438127 -111.993766 225 1148ft 0kts
29-Aug-20 09:38 33.438127 -111.993766 225 1148ft 0kts
29-Aug-20 09:39 33.438127 -111.993766 225 1148ft 0kts
29-Aug-20 09:40 33.438127 -111.993766 225 1148ft 0kts
29-Aug-20 09:41 33.438127 -111.993766 225 1148ft 0kts
29-Aug-20 09:42 33.438127 -111.993766 225 1148ft 0kts
29-Aug-20 09:43 33.438127 -111.993766 225 1148ft 0kts
29-Aug-20 09:44 33.438127 -111.993766 225 1148ft 0kts
29-Aug-20 09:45 33.438127 -111.993766 225 1148ft 0kts
29-Aug-20 09:46 33.438127 -111.993766 225 1148ft 0kts
29-Aug-20 09:47 33.438127 -111.993766 225 1148ft 0kts
29-Aug-20 09:48 33.438127 -111.993766 225 1148ft 0kts
29-Aug-20 09:49 33.438127 -111.993766 225 1148ft 0kts
29-Aug-20 09:50 33.438127 -111.993766 225 1148ft 0kts
29-Aug-20 09:51 33.438127 -111.993766 225 1148ft 0kts
29-Aug-20 09:52 33.438127 -111.993766 225 1148ft 0kts
29-Aug-20 09:53 33.438127 -111.993766 225 1148ft 0kts
29-Aug-20 09:54 33.438127 -111.993766 225 1148ft 0kts
29-Aug-20 09:55 33.438127 -111.993766 225 1148ft 0kts
29-Aug-20 09:56 33.438127 -111.993766 225 1148ft 0kts
29-Aug-20 09:57 33.438127 -111.993766 225 1148ft 0kts
29-Aug-20 09:58 33.438127 -111.993766 225 1148ft 0kts
29-Aug-20 10:00 33.438127 -111.993766 225 1148ft 0kts
29-Aug-20 10:01 33.438127 -111.993766 225 1148ft 0kts
29-Aug-20 10:02 33.438131 -111.993762 225 1148ft 0kts
29-Aug-20 10:03 33.438200 -111.993188 332 1148ft 2kts
29-Aug-20 10:04 33.437689 -111.993031 359 1148ft 0kts
29-Aug-20 10:05 33.437690 -111.993031 359 1148ft 0kts
29-Aug-20 10:06 33.437691 -111.993031 359 1148ft 0kts
29-Aug-20 10:07 33.438805 -111.993190 318 1148ft 14kts
29-Aug-20 10:08 33.439007 -112.002287 270 1148ft 40kts
29-Aug-20 10:09 33.438998 -112.013218 264 1148ft 32kts
29-Aug-20 10:10 33.438996 -112.025265 269 1148ft 32kts
29-Aug-20 10:11 33.439512 -112.029596 341 1148ft 7kts
29-Aug-20 10:12 33.440851 -112.012129 90 1205ft 186kts
29-Aug-20 10:13 33.438330 -111.942874 92 4752ft 248kts
29-Aug-20 10:14 33.443176 -111.852606 57 7665ft 287kts
29-Aug-20 10:15 33.516140 -111.831234 351 8702ft 289kts
29-Aug-20 10:16 33.597102 -111.836391 359 9036ft 293kts
29-Aug-20 10:16 33.664683 -111.838085 353 9176ft 290kts
29-Aug-20 10:18 33.757525 -111.886429 310 11373ft 381kts
29-Aug-20 10:19 33.821432 -111.993417 303 15211ft 400kts
29-Aug-20 10:19 33.876502 -112.084289 302 18470ft 409kts
29-Aug-20 10:20 33.945493 -112.198292 302 20942ft 429kts
29-Aug-20 10:21 34.016525 -112.315725 304 22458ft 441kts
29-Aug-20 10:22 34.108687 -112.417165 317 23100ft 453kts
29-Aug-20 10:23 34.207470 -112.515637 316 24944ft 467kts
29-Aug-20 10:24 34.308476 -112.617567 316 27607ft 478kts
29-Aug-20 10:25 34.411829 -112.721723 315 29668ft 488kts
29-Aug-20 10:26 34.514239 -112.826101 314 32558ft 472kts
29-Aug-20 10:27 34.613776 -112.927530 313 34810ft 464kts
29-Aug-20 10:28 34.712089 -113.028298 313 36517ft 460kts
29-Aug-20 10:29 34.785577 -113.148955 292 37946ft 440kts
29-Aug-20 10:30 34.840675 -113.284704 291 38159ft 459kts
29-Aug-20 10:31 34.898553 -113.427425 291 38127ft 477kts
29-Aug-20 10:32 34.958284 -113.572828 292 38100ft 479kts
29-Aug-20 10:33 35.017367 -113.718268 291 38086ft 479kts
29-Aug-20 10:34 35.076308 -113.864215 291 38084ft 479kts
29-Aug-20 10:35 35.134935 -114.010051 291 38070ft 479kts
29-Aug-20 10:36 35.193905 -114.157397 291 38050ft 485kts
29-Aug-20 10:37 35.252982 -114.305681 291 37978ft 484kts
29-Aug-20 10:38 35.311703 -114.453562 291 37922ft 484kts
29-Aug-20 10:39 35.370490 -114.601971 290 37897ft 483kts
29-Aug-20 10:40 35.428641 -114.750493 290 37904ft 483kts
29-Aug-20 10:41 35.507255 -114.885669 305 37930ft 496kts
29-Aug-20 10:42 35.599209 -115.013118 305 37959ft 497kts
29-Aug-20 10:43 35.690094 -115.141203 305 37972ft 497kts
29-Aug-20 10:44 35.780823 -115.268924 305 37993ft 497kts
29-Aug-20 10:45 35.871577 -115.397812 304 37996ft 496kts
29-Aug-20 10:46 35.961918 -115.526692 304 37996ft 497kts
29-Aug-20 10:47 36.051931 -115.655597 304 37988ft 496kts
29-Aug-20 10:48 36.141955 -115.785015 304 38011ft 496kts
29-Aug-20 10:49 36.231818 -115.914700 304 38018ft 496kts
29-Aug-20 10:50 36.321716 -116.044939 304 38028ft 496kts
29-Aug-20 10:51 36.411332 -116.175274 304 38043ft 496kts
29-Aug-20 10:52 36.500719 -116.305787 304 38046ft 497kts
29-Aug-20 10:53 36.590230 -116.436982 304 38046ft 498kts
29-Aug-20 10:54 36.680153 -116.568895 304 38058ft 499kts
29-Aug-20 10:55 36.769309 -116.700979 304 38066ft 499kts
29-Aug-20 10:56 36.867746 -116.824428 312 38076ft 507kts
29-Aug-20 10:57 36.973337 -116.942133 311 38089ft 508kts
29-Aug-20 10:58 37.078672 -117.060786 312 38104ft 508kts
29-Aug-20 10:59 37.183689 -117.179543 312 38111ft 509kts
29-Aug-20 11:00 37.288534 -117.299148 312 38121ft 509kts
29-Aug-20 11:01 37.396329 -117.414932 314 38149ft 511kts
29-Aug-20 11:02 37.505700 -117.529382 319 38168ft 515kts
29-Aug-20 11:03 37.627877 -117.626453 322 38175ft 520kts
29-Aug-20 11:04 37.750908 -117.723883 322 38139ft 520kts
29-Aug-20 11:05 37.873259 -117.820984 322 38139ft 520kts
29-Aug-20 11:06 37.995875 -117.919025 322 38136ft 521kts
29-Aug-20 11:07 38.118338 -118.017397 322 38136ft 520kts
29-Aug-20 11:08 38.240544 -118.115708 322 38127ft 520kts
29-Aug-20 11:09 38.362657 -118.214864 323 35372ft 521kts
29-Aug-20 11:10 38.473353 -118.326815 313 32004ft 497kts
29-Aug-20 11:11 38.570415 -118.448215 314 29106ft 478kts
29-Aug-20 11:12 38.663829 -118.564405 315 26408ft 460kts
29-Aug-20 11:13 38.754114 -118.676915 315 23810ft 444kts
29-Aug-20 11:14 38.841376 -118.785649 315 21303ft 429kts
29-Aug-20 11:15 38.925571 -118.890234 314 18890ft 415kts
29-Aug-20 11:16 39.007047 -118.992669 314 17204ft 405kts
29-Aug-20 11:17 39.087565 -119.094029 315 16901ft 403kts
29-Aug-20 11:18 39.166409 -119.193541 315 16087ft 399kts
29-Aug-20 11:19 39.245278 -119.293036 315 14935ft 390kts
29-Aug-20 11:20 39.321637 -119.389973 315 12705ft 378kts
29-Aug-20 11:21 39.401616 -119.475688 325 11188ft 368kts
29-Aug-20 11:22 39.476295 -119.544710 323 10533ft 291kts
29-Aug-20 11:23 39.535500 -119.600216 323 9602ft 247kts
29-Aug-20 11:24 39.587846 -119.651594 307 7833ft 209kts
29-Aug-20 11:25 39.604172 -119.721640 274 6555ft 192kts
29-Aug-20 11:26 39.574084 -119.769319 193 6414ft 181kts
29-Aug-20 11:27 39.527705 -119.766351 191 6365ft 161kts
29-Aug-20 11:28 39.475652 -119.767312 182 6390ft 226kts
29-Aug-20 11:29 39.404123 -119.767033 180 8994ft 271kts
29-Aug-20 11:30 39.327824 -119.781196 198 12626ft 283kts
29-Aug-20 11:31 39.253309 -119.796283 158 13032ft 285kts
29-Aug-20 11:32 39.190430 -119.734759 138 13018ft 285kts
29-Aug-20 11:33 39.153362 -119.652261 76 12487ft 299kts
29-Aug-20 11:34 39.218624 -119.596273 7 12298ft 273kts
29-Aug-20 11:35 39.289499 -119.587084 5 10484ft 250kts
29-Aug-20 11:36 39.358716 -119.578321 5 10038ft 252kts
29-Aug-20 11:37 39.428764 -119.569407 5 10006ft 253kts
29-Aug-20 11:38 39.496478 -119.568325 337 9926ft 221kts
29-Aug-20 11:39 39.545177 -119.607643 327 8784ft 191kts
29-Aug-20 11:40 39.586332 -119.648168 316 7962ft 182kts
29-Aug-20 11:41 39.602393 -119.708310 280 7045ft 176kts
29-Aug-20 11:42 39.586886 -119.761869 204 6214ft 173kts
29-Aug-20 11:43 39.541914 -119.766581 183 5029ft 159kts
29-Aug-20 11:44 39.498776 -119.766781 178 4428ft 96kts
29-Aug-20 11:45 39.489513 -119.766530 132 4428ft 17kts
29-Aug-20 11:46 39.493857 -119.765263 359 4428ft 28kts
29-Aug-20 11:47 39.497084 -119.765216 359 4428ft 0kts
29-Aug-20 11:48 39.497831 -119.768513 270 4428ft 29kts
29-Aug-20 11:49 39.502142 -119.771597 0 4428ft 32kts

Navigation Log

Ident Type
Flight plan parsing failed, navigation log unavailable